Arlington, Kansas
Current Conditions -  °F | °C
As of 7:52 AM on Tuesday 21 Oct 2014 (Local Time) from KHUT Reporting Station
Broken Clouds Broken Clouds  
Wind Chill: 53°   Ceiling: 4200
Heat Index: 53°   Visibility: 10mi
Dew Point: 50°   Wind: 3mph
Humidity: 89%   Direction: 140°SE
Pressure: 30.09"   Gusts: NA
Location:  37.9°N, 98.18°W
Report Text: KHUT 211252Z 14003KT 10SM BKN042 BKN050 12/10 A3009 RMK AO2 SLP180 T01170100
Loading
Personal Weather Stations






























Interactive Weather Map
Tropical Storm Tracking
New forecast layout! Learn more

10-Day Weather Forecast

Advertisements
Track Severe Weather on mobile